Glenrothes, United Kingdom
Current Conditions -  °F | °C
As of 12:50 PM on Sunday 21 Dec 2014 (Local Time) from EGQL Reporting Station
Broken Clouds Broken Clouds  
Wind Chill: 52°   Ceiling: 11000
Heat Index: 52°   Visibility: 6mi
Dew Point: 48°   Wind: 28mph
Humidity: 88%   Direction: 260°W
Pressure: 29.68"   Gusts: NA
Location:  56.2°N, 3.17°W
Report Text: EGQL 211250Z 26024KT 9999 FEW013 SCT024 BKN110 11/09 Q1005 WHT
Loading
Personal Weather Stations






























Interactive Weather Map New forecast layout! Learn more

10-Day Weather Forecast

Advertisements
Track Severe Weather on mobile